aviador You're here:

SAOC Decoded Metar

RIO CUARTO in ARGENTINA
Report Time2017-08-18 04:00:00
UTC Time2017-08-18 04:47:33
Flight Rules vfr VFR
Wind360° at 06 kt
W.Decomp.*RWY 36: 6.0 kt HW 0.2 kt RCW
RWY 05: 4.0 kt HW 4.5 kt LCW
Visibility9999 m
Phenomena:N/A
Clouds:N/A
Expected CloudBase > 2,400 ft AGL from Temp-Dew spread
CeilingNone
Temp13°C (ISA +1)
Dew Point07°C (67% RH)
AAT10.1°C
QNH1009 hPa
Density Alt1,745 ft
Elevation1,381 ft
Report Wrong Elevation
Raw Report
SAOC 180400Z 36006KT 9999 NSC 13/07 Q1009=

Extra information for SAOC:More info

Metar Taf Metar & Taf Last 4 Metars F.Rules Stats Wind Profile Meteogram Temp Stats Airport Information Weather charts Add Link Nearby VenuesMetar ALERT Operation Metar Decoded Social comments